Time;durP1;ratioP1;P1;durP2;ratioP2;P2;SDS_P1;SDS_P2;PMS_P1;PMS_P2;Temp;Humidity;BMP_temperature;BMP_pressure;BME280_temperature;BME280_humidity;BME280_pressure;Samples;Min_cycle;Max_cycle;Signal;HPM_P1;HPM_P2
2023/04/11 00:02:23;;;;;;;5.30;3.33;;;13.50;99.90;;;;;;4961703;28;20032;-70
2023/04/11 00:04:53;;;;;;;6.43;3.05;;;13.50;99.90;;;;;;4961372;29;20030;-71
2023/04/11 00:07:19;;;;;;;8.77;3.10;;;13.40;99.90;;;;;;4961327;28;20028;-71
2023/04/11 00:09:45;;;;;;;8.05;3.42;;;13.40;99.90;;;;;;4961200;28;20023;-71
2023/04/11 00:12:10;;;;;;;7.05;2.90;;;13.40;99.90;;;;;;4960148;28;20050;-71
2023/04/11 00:14:37;;;;;;;8.68;4.85;;;13.40;99.90;;;;;;4961196;28;20024;-71
2023/04/11 00:17:04;;;;;;;3.45;2.72;;;13.40;99.90;;;;;;4961420;28;20396;-71
2023/04/11 00:19:32;;;;;;;7.40;2.92;;;13.40;99.90;;;;;;4960972;28;20019;-71
2023/04/11 00:21:59;;;;;;;6.85;2.72;;;13.30;99.90;;;;;;4960880;28;20047;-71
2023/04/11 00:24:25;;;;;;;6.75;3.42;;;13.30;99.90;;;;;;4961204;28;20503;-71
2023/04/11 00:26:51;;;;;;;4.88;3.00;;;13.30;99.90;;;;;;4959868;29;20420;-72
2023/04/11 00:29:17;;;;;;;5.68;3.35;;;13.30;99.90;;;;;;4961027;28;20510;-72
2023/04/11 00:31:43;;;;;;;6.18;3.28;;;13.30;99.90;;;;;;4961072;28;20039;-71
2023/04/11 00:34:08;;;;;;;5.95;3.63;;;13.30;99.90;;;;;;4960755;28;20019;-72
2023/04/11 00:36:34;;;;;;;9.02;3.85;;;13.30;99.90;;;;;;4960986;29;20027;-71
2023/04/11 00:39:00;;;;;;;9.50;3.35;;;13.20;99.90;;;;;;4960614;28;20023;-71
2023/04/11 00:41:26;;;;;;;4.78;3.33;;;13.30;99.90;;;;;;4961039;29;20027;-72
2023/04/11 00:43:53;;;;;;;7.30;3.30;;;13.30;99.90;;;;;;4960779;28;20514;-72
2023/04/11 00:46:20;;;;;;;4.65;3.20;;;13.30;99.90;;;;;;4960786;28;20070;-72
2023/04/11 00:48:46;;;;;;;8.00;3.20;;;13.30;99.90;;;;;;4960625;29;20050;-71
2023/04/11 00:51:13;;;;;;;12.05;3.90;;;13.30;99.90;;;;;;4960770;28;20026;-72
2023/04/11 00:53:40;;;;;;;9.15;3.72;;;13.30;99.90;;;;;;4959419;29;20030;-72
2023/04/11 00:56:07;;;;;;;6.60;3.22;;;13.30;99.90;;;;;;4960485;28;20110;-71
2023/04/11 00:58:33;;;;;;;8.93;3.05;;;13.30;99.90;;;;;;4960713;28;20027;-72
2023/04/11 01:00:59;;;;;;;12.70;3.33;;;13.30;99.90;;;;;;4960627;28;20139;-71
2023/04/11 01:03:25;;;;;;;8.65;3.70;;;13.30;99.90;;;;;;4960626;29;20086;-72
2023/04/11 01:05:52;;;;;;;5.65;3.50;;;13.30;99.90;;;;;;4960282;28;20023;-73
2023/04/11 01:08:19;;;;;;;7.18;4.22;;;13.20;99.90;;;;;;4960317;28;20020;-72
2023/04/11 01:10:45;;;;;;;5.32;3.60;;;13.20;99.90;;;;;;4960260;28;20031;-73
2023/04/11 01:13:11;;;;;;;9.00;4.15;;;13.20;99.90;;;;;;4959301;29;20086;-73
2023/04/11 01:15:37;;;;;;;6.35;3.50;;;13.20;99.90;;;;;;4960132;28;20432;-73
2023/04/11 01:18:04;;;;;;;7.43;4.05;;;13.20;99.90;;;;;;4960364;29;20036;-73
2023/04/11 01:20:32;;;;;;;6.18;3.30;;;13.20;99.90;;;;;;4959715;28;20035;-73
2023/04/11 01:23:00;;;;;;;8.23;4.00;;;13.20;99.90;;;;;;4958197;28;20019;-72
2023/04/11 01:25:26;;;;;;;8.73;4.07;;;13.20;99.90;;;;;;4958799;28;20385;-73
2023/04/11 01:27:52;;;;;;;8.65;4.22;;;13.20;99.90;;;;;;4960098;28;20031;-73
2023/04/11 01:30:17;;;;;;;8.13;3.40;;;13.20;99.90;;;;;;4959990;28;20551;-73
2023/04/11 01:32:43;;;;;;;6.63;3.53;;;13.20;99.90;;;;;;4959843;28;20034;-73
2023/04/11 01:35:11;;;;;;;6.30;3.38;;;13.20;99.90;;;;;;4959822;28;20026;-72
2023/04/11 01:37:37;;;;;;;12.57;4.20;;;13.20;99.90;;;;;;4959555;28;20035;-72
2023/04/11 01:40:04;;;;;;;7.05;4.38;;;13.20;99.90;;;;;;4959668;28;20023;-72
2023/04/11 01:42:31;;;;;;;6.82;3.38;;;13.20;99.90;;;;;;4959611;28;20037;-73
2023/04/11 01:44:58;;;;;;;7.05;4.97;;;13.10;99.90;;;;;;4958420;28;20024;-73
2023/04/11 01:47:23;;;;;;;6.57;3.50;;;13.10;99.90;;;;;;4959621;28;20042;-73
2023/04/11 01:49:49;;;;;;;11.70;4.03;;;13.10;99.90;;;;;;4959136;28;20027;-72
2023/04/11 01:52:15;;;;;;;6.32;4.13;;;13.10;99.90;;;;;;4959373;28;20542;-73
2023/04/11 01:54:41;;;;;;;8.40;3.40;;;13.10;99.90;;;;;;4959203;28;20074;-73
2023/04/11 01:57:06;;;;;;;5.55;3.50;;;13.10;99.90;;;;;;4959322;28;20094;-73
2023/04/11 01:59:32;;;;;;;5.70;3.70;;;13.10;99.90;;;;;;4957091;28;20019;-73
2023/04/11 02:01:57;;;;;;;7.00;4.30;;;13.10;99.90;;;;;;4959188;28;20531;-73
2023/04/11 02:04:23;;;;;;;8.27;3.60;;;13.10;99.90;;;;;;4959017;28;20110;-72
2023/04/11 02:06:49;;;;;;;11.05;4.05;;;13.10;99.90;;;;;;4959064;28;20038;-73
2023/04/11 02:09:15;;;;;;;7.63;3.72;;;13.10;99.90;;;;;;4959014;28;20020;-73
2023/04/11 02:11:41;;;;;;;5.35;3.90;;;13.10;99.90;;;;;;4959380;28;20058;-73
2023/04/11 02:14:08;;;;;;;8.13;3.63;;;13.10;99.90;;;;;;4959029;28;20074;-73
2023/04/11 02:16:48;;;;;;;8.23;3.88;;;13.10;99.90;;;;;;4957615;28;20070;-73
2023/04/11 02:19:14;;;;;;;4.70;3.37;;;13.10;99.90;;;;;;4957471;28;20033;-73
2023/04/11 02:21:39;;;;;;;6.32;3.70;;;13.10;99.90;;;;;;4958640;28;20130;-73
2023/04/11 02:24:05;;;;;;;7.45;3.85;;;13.10;99.90;;;;;;4959104;28;20035;-73
2023/04/11 02:26:31;;;;;;;5.43;3.75;;;13.10;99.90;;;;;;4959226;28;20054;-73
2023/04/11 02:28:56;;;;;;;5.88;3.35;;;13.10;99.90;;;;;;4958963;29;20419;-73
2023/04/11 02:31:22;;;;;;;9.15;4.20;;;13.10;99.90;;;;;;4957847;29;20027;-73
2023/04/11 02:33:47;;;;;;;7.57;4.13;;;13.00;99.90;;;;;;4958523;28;20031;-73
2023/04/11 02:36:13;;;;;;;6.03;4.13;;;13.00;99.90;;;;;;4958454;29;20607;-73
2023/04/11 02:38:39;;;;;;;6.10;3.95;;;13.00;99.90;;;;;;4958774;28;20503;-73
2023/04/11 02:41:06;;;;;;;5.30;3.88;;;13.00;99.90;;;;;;4958793;28;20019;-73
2023/04/11 02:43:32;;;;;;;4.25;3.25;;;13.00;99.90;;;;;;4958182;28;20016;-73
2023/04/11 02:45:59;;;;;;;8.18;3.80;;;13.00;99.90;;;;;;4958825;29;20098;-72
2023/04/11 02:48:24;;;;;;;7.50;4.47;;;12.90;99.90;;;;;;4957310;28;20063;-73
2023/04/11 02:50:50;;;;;;;5.50;3.35;;;12.90;99.90;;;;;;4958612;28;20034;-73
2023/04/11 02:53:16;;;;;;;9.10;3.60;;;12.90;99.90;;;;;;4958590;29;20038;-72
2023/04/11 02:55:42;;;;;;;7.93;4.00;;;12.90;99.90;;;;;;4958765;28;20488;-72
2023/04/11 02:58:07;;;;;;;4.43;3.40;;;12.90;99.90;;;;;;4957159;28;20380;-72
2023/04/11 03:00:33;;;;;;;11.35;3.85;;;12.90;99.90;;;;;;4958520;29;20146;-73
2023/04/11 03:02:59;;;;;;;7.03;3.67;;;12.90;99.90;;;;;;4958434;28;20026;-73
2023/04/11 03:05:25;;;;;;;5.68;3.20;;;12.90;99.90;;;;;;4949422;29;20026;-72
2023/04/11 03:07:50;;;;;;;5.80;3.08;;;12.80;99.90;;;;;;4957821;28;20031;-73
2023/04/11 03:10:16;;;;;;;7.20;3.60;;;12.80;99.90;;;;;;4950874;29;20028;-72
2023/04/11 03:12:42;;;;;;;7.93;4.38;;;12.80;99.90;;;;;;4958581;28;20023;-72
2023/04/11 03:15:08;;;;;;;7.93;4.07;;;12.80;99.90;;;;;;4958355;28;20034;-73
2023/04/11 03:17:33;;;;;;;4.55;3.58;;;12.80;99.90;;;;;;4958492;29;20038;-72
2023/04/11 03:19:59;;;;;;;4.97;3.58;;;12.80;99.90;;;;;;4958453;28;20093;-72
2023/04/11 03:22:25;;;;;;;6.75;3.35;;;12.80;99.90;;;;;;4958301;28;20070;-72
2023/04/11 03:24:51;;;;;;;9.05;4.15;;;12.80;99.90;;;;;;4958768;29;20023;-72
2023/04/11 03:27:16;;;;;;;3.92;3.53;;;12.70;99.90;;;;;;4955273;29;20031;-72
2023/04/11 03:29:42;;;;;;;5.85;4.03;;;12.70;99.90;;;;;;4958677;28;20019;-72
2023/04/11 03:32:08;;;;;;;7.97;3.72;;;12.80;99.90;;;;;;4958296;28;20027;-72
2023/04/11 03:34:35;;;;;;;4.75;3.63;;;12.80;99.90;;;;;;4958604;29;20511;-72
2023/04/11 03:37:00;;;;;;;9.30;3.83;;;12.80;99.90;;;;;;4957990;28;20035;-72
2023/04/11 03:39:26;;;;;;;9.88;4.00;;;12.80;99.90;;;;;;4958498;29;20027;-72
2023/04/11 03:41:51;;;;;;;8.35;3.80;;;12.80;99.90;;;;;;4958269;28;20074;-72
2023/04/11 03:44:17;;;;;;;5.00;3.50;;;12.80;99.90;;;;;;4958453;28;20031;-73
2023/04/11 03:46:43;;;;;;;5.43;3.25;;;12.80;99.90;;;;;;4958048;28;20057;-72
2023/04/11 03:49:08;;;;;;;3.83;3.05;;;12.80;99.90;;;;;;4961934;28;20123;-72
2023/04/11 03:51:34;;;;;;;5.53;3.33;;;12.80;99.90;;;;;;4960102;28;20446;-72
2023/04/11 03:53:59;;;;;;;7.20;3.97;;;12.80;99.90;;;;;;4962041;28;20078;-72
2023/04/11 03:56:25;;;;;;;6.55;3.72;;;12.80;99.90;;;;;;4961644;28;20436;-72
2023/04/11 03:58:51;;;;;;;4.55;3.28;;;12.80;99.90;;;;;;4961858;28;20377;-72
2023/04/11 04:01:16;;;;;;;5.03;3.08;;;12.80;99.90;;;;;;4960331;28;20046;-72
2023/04/11 04:03:42;;;;;;;5.00;3.65;;;12.80;99.90;;;;;;4961601;28;20107;-72
2023/04/11 04:06:08;;;;;;;6.22;3.45;;;12.80;99.90;;;;;;4961505;28;20023;-72
2023/04/11 04:08:34;;;;;;;5.55;3.55;;;12.80;99.90;;;;;;4961439;28;20062;-72
2023/04/11 04:10:59;;;;;;;4.80;3.17;;;12.80;99.90;;;;;;4961565;28;20114;-72
2023/04/11 04:13:26;;;;;;;4.82;3.05;;;12.80;99.90;;;;;;4961620;28;20205;-72
2023/04/11 04:15:52;;;;;;;6.05;3.65;;;12.80;99.90;;;;;;4961455;28;20114;-72
2023/04/11 04:18:18;;;;;;;5.25;3.13;;;12.70;99.90;;;;;;4961305;28;20063;-72
2023/04/11 04:20:45;;;;;;;5.35;3.45;;;12.80;99.90;;;;;;4961106;29;20044;-72
2023/04/11 04:23:12;;;;;;;6.25;4.07;;;12.80;99.90;;;;;;4961078;28;20495;-72
2023/04/11 04:25:40;;;;;;;4.70;3.67;;;12.80;99.90;;;;;;4961083;28;20015;-73
2023/04/11 04:28:06;;;;;;;6.95;3.63;;;12.80;99.90;;;;;;4961351;28;20396;-72
2023/04/11 04:30:32;;;;;;;6.78;3.33;;;12.70;99.90;;;;;;4960929;28;20047;-72
2023/04/11 04:32:58;;;;;;;4.85;3.88;;;12.70;99.90;;;;;;4961259;28;20034;-72
2023/04/11 04:35:25;;;;;;;13.18;4.70;;;12.70;99.90;;;;;;4959956;29;20027;-72
2023/04/11 04:37:50;;;;;;;6.03;3.20;;;12.80;99.90;;;;;;4960486;28;20503;-72
2023/04/11 04:40:19;;;;;;;5.10;3.00;;;12.80;99.90;;;;;;4960852;28;20078;-72
2023/04/11 04:42:48;;;;;;;6.05;4.00;;;12.80;99.90;;;;;;4961034;28;20055;-72
2023/04/11 04:45:15;;;;;;;5.10;4.22;;;12.80;99.90;;;;;;4960857;28;20078;-72
2023/04/11 04:47:41;;;;;;;7.90;3.58;;;12.80;99.90;;;;;;4958266;28;20106;-72
2023/04/11 04:50:07;;;;;;;4.50;3.53;;;12.80;99.90;;;;;;4960637;28;20042;-73
2023/04/11 04:52:33;;;;;;;4.93;3.13;;;12.80;99.90;;;;;;4960752;28;20037;-72
2023/04/11 04:54:59;;;;;;;5.57;3.13;;;12.80;99.90;;;;;;4959168;28;20056;-72
2023/04/11 04:57:27;;;;;;;6.22;3.47;;;12.80;99.90;;;;;;4958667;28;20036;-73
2023/04/11 04:59:54;;;;;;;7.25;3.38;;;12.80;99.90;;;;;;4960410;28;20096;-73
2023/04/11 05:02:20;;;;;;;6.80;3.67;;;12.80;99.90;;;;;;4959847;28;20074;-72
2023/04/11 05:04:47;;;;;;;4.13;3.20;;;12.80;99.90;;;;;;4959158;28;20579;-73
2023/04/11 05:07:13;;;;;;;9.85;3.80;;;12.80;99.90;;;;;;4960303;28;20023;-72
2023/04/11 05:09:39;;;;;;;5.60;3.28;;;12.80;99.90;;;;;;4960494;29;20051;-72
2023/04/11 05:12:05;;;;;;;5.25;3.28;;;12.80;99.90;;;;;;4960178;28;20030;-72
2023/04/11 05:14:31;;;;;;;6.43;3.50;;;12.80;99.90;;;;;;4958977;28;20027;-72
2023/04/11 05:16:56;;;;;;;4.65;2.80;;;12.80;99.90;;;;;;4960250;29;20042;-72
2023/04/11 05:19:22;;;;;;;5.68;3.20;;;12.80;99.90;;;;;;4958463;28;20027;-72
2023/04/11 05:21:48;;;;;;;7.30;3.40;;;12.80;99.90;;;;;;4959584;29;20055;-72
2023/04/11 05:24:13;;;;;;;7.10;3.60;;;12.70;99.90;;;;;;4959199;28;20452;-72
2023/04/11 05:26:39;;;;;;;5.35;3.65;;;12.80;99.90;;;;;;4959877;28;20026;-73
2023/04/11 05:29:05;;;;;;;6.22;3.55;;;12.80;99.90;;;;;;4960248;28;20403;-72
2023/04/11 05:31:31;;;;;;;5.50;3.28;;;12.90;99.90;;;;;;4959633;28;20452;-72
2023/04/11 05:33:57;;;;;;;8.77;3.35;;;12.90;99.90;;;;;;4960144;28;20050;-72
2023/04/11 05:36:23;;;;;;;4.90;2.80;;;12.90;99.90;;;;;;4958933;29;20020;-72
2023/04/11 05:38:49;;;;;;;6.57;3.60;;;13.00;99.90;;;;;;4959777;29;20408;-72
2023/04/11 05:41:15;;;;;;;7.03;3.70;;;13.00;99.90;;;;;;4960025;28;20027;-73
2023/04/11 05:43:41;;;;;;;7.10;3.28;;;13.00;99.90;;;;;;4958376;28;20028;-72
2023/04/11 05:46:07;;;;;;;4.18;3.25;;;13.00;99.90;;;;;;4959612;28;20023;-72
2023/04/11 05:48:33;;;;;;;4.57;3.10;;;13.00;99.90;;;;;;4959707;29;20102;-72
2023/04/11 05:50:59;;;;;;;5.90;3.58;;;13.00;99.90;;;;;;4959554;29;20023;-72
2023/04/11 05:53:25;;;;;;;6.03;3.70;;;13.00;99.90;;;;;;4959120;28;20031;-72
2023/04/11 05:55:50;;;;;;;4.13;2.90;;;13.00;99.90;;;;;;4959470;28;20059;-72
2023/04/11 05:58:16;;;;;;;4.57;3.83;;;13.00;99.90;;;;;;4959221;28;20050;-72
2023/04/11 06:00:42;;;;;;;3.88;3.20;;;13.00;99.90;;;;;;4958132;28;20030;-73
2023/04/11 06:03:08;;;;;;;7.30;3.92;;;13.00;99.90;;;;;;4959002;28;20031;-73
2023/04/11 06:05:34;;;;;;;5.28;3.53;;;13.00;99.90;;;;;;4959433;29;20526;-72
2023/04/11 06:08:02;;;;;;;7.13;3.80;;;13.10;99.90;;;;;;4958872;28;20027;-72
2023/04/11 06:10:29;;;;;;;6.65;3.72;;;13.10;99.90;;;;;;4958800;28;20111;-72
2023/04/11 06:12:55;;;;;;;5.55;3.03;;;13.20;99.90;;;;;;4958807;28;20114;-72
2023/04/11 06:15:22;;;;;;;4.45;3.17;;;13.20;99.90;;;;;;4958755;29;20082;-72
2023/04/11 06:17:47;;;;;;;4.68;3.30;;;13.30;99.90;;;;;;4959169;28;20467;-72
2023/04/11 06:20:14;;;;;;;8.25;3.15;;;13.30;99.90;;;;;;4957391;29;20170;-72
2023/04/11 06:22:40;;;;;;;4.47;3.03;;;13.30;99.90;;;;;;4958834;28;20403;-72
2023/04/11 06:25:06;;;;;;;8.25;3.13;;;13.40;99.90;;;;;;4959026;28;20027;-73
2023/04/11 06:27:32;;;;;;;4.88;3.10;;;13.40;99.90;;;;;;4957486;28;20490;-72
2023/04/11 06:29:58;;;;;;;5.03;2.83;;;13.50;99.90;;;;;;4959049;28;20101;-72
2023/04/11 06:32:26;;;;;;;5.82;3.60;;;13.50;99.90;;;;;;4958877;28;20023;-73
2023/04/11 06:34:52;;;;;;;7.40;3.20;;;13.50;99.90;;;;;;4958819;28;20027;-71
2023/04/11 06:37:19;;;;;;;6.05;3.58;;;13.60;99.90;;;;;;4958446;28;20034;-72
2023/04/11 06:39:44;;;;;;;6.10;3.10;;;13.60;99.90;;;;;;4958866;28;20094;-72
2023/04/11 06:42:10;;;;;;;6.43;3.28;;;13.70;99.90;;;;;;4958722;28;20050;-72
2023/04/11 06:44:36;;;;;;;5.22;3.72;;;13.70;99.90;;;;;;4958677;28;20027;-72
2023/04/11 06:47:02;;;;;;;4.05;2.88;;;13.70;99.90;;;;;;4957419;28;20023;-72
2023/04/11 06:49:28;;;;;;;5.85;3.72;;;13.70;99.90;;;;;;4958565;28;20023;-72
2023/04/11 06:51:54;;;;;;;4.95;2.88;;;13.80;99.90;;;;;;4956255;28;20050;-72
2023/04/11 06:54:21;;;;;;;7.57;3.42;;;13.90;99.90;;;;;;4958543;28;20047;-72
2023/04/11 06:56:49;;;;;;;7.78;3.22;;;14.00;99.90;;;;;;4957120;29;20036;-72
2023/04/11 06:59:15;;;;;;;5.63;3.15;;;14.00;99.90;;;;;;4948397;28;20039;-72
2023/04/11 07:01:41;;;;;;;3.45;3.15;;;13.90;99.90;;;;;;4963908;28;20019;-71
2023/04/11 07:04:07;;;;;;;3.58;2.78;;;13.90;99.90;;;;;;4966649;28;20513;-71
2023/04/11 07:06:34;;;;;;;6.10;2.80;;;13.90;99.90;;;;;;4969382;28;20026;-71
2023/04/11 07:09:00;;;;;;;7.85;3.70;;;13.80;99.90;;;;;;4965294;28;20531;-71
2023/04/11 07:11:27;;;;;;;4.15;3.72;;;13.80;99.90;;;;;;4968506;28;20036;-71
2023/04/11 07:13:54;;;;;;;5.85;3.70;;;13.80;99.90;;;;;;4961395;28;20487;-71
2023/04/11 07:16:20;;;;;;;4.82;3.63;;;13.70;99.90;;;;;;4968366;28;20110;-71
2023/04/11 07:18:45;;;;;;;5.40;3.35;;;13.70;99.90;;;;;;4965412;28;20051;-71
2023/04/11 07:21:12;;;;;;;8.50;3.13;;;13.80;99.90;;;;;;4970500;28;20050;-71
2023/04/11 07:23:38;;;;;;;6.03;3.72;;;13.80;99.90;;;;;;4974705;28;20039;-71
2023/04/11 07:26:05;;;;;;;5.70;3.38;;;13.80;99.90;;;;;;4974102;28;20514;-71
2023/04/11 07:28:30;;;;;;;6.75;3.33;;;13.80;99.90;;;;;;4971592;28;20483;-71
2023/04/11 07:30:57;;;;;;;5.75;3.38;;;13.80;99.90;;;;;;4972772;28;20034;-71
2023/04/11 07:33:22;;;;;;;9.02;3.90;;;13.80;99.90;;;;;;4969996;28;20102;-71
2023/04/11 07:35:48;;;;;;;6.25;3.60;;;13.80;99.90;;;;;;4966877;28;20563;-71
2023/04/11 07:38:28;;;;;;;8.35;3.72;;;13.90;99.90;;;;;;4972640;28;20483;-71
2023/04/11 07:40:55;;;;;;;9.80;3.70;;;13.90;99.90;;;;;;4969583;28;20038;-71
2023/04/11 07:43:20;;;;;;;4.57;2.78;;;14.00;99.90;;;;;;4962143;28;20023;-72
2023/04/11 07:45:46;;;;;;;5.07;3.38;;;14.00;99.90;;;;;;4970672;28;20479;-71
2023/04/11 07:48:12;;;;;;;8.93;3.78;;;13.90;99.90;;;;;;4971744;28;20034;-70
2023/04/11 07:50:37;;;;;;;6.13;4.38;;;14.00;99.90;;;;;;4972925;28;20034;-71
2023/04/11 07:53:03;;;;;;;7.63;3.42;;;14.00;99.90;;;;;;4974954;28;20024;-72
2023/04/11 07:55:28;;;;;;;7.63;3.10;;;14.00;99.90;;;;;;4969248;28;20034;-71
2023/04/11 07:57:54;;;;;;;11.07;3.47;;;14.00;99.90;;;;;;4962063;28;20121;-72
2023/04/11 08:00:21;;;;;;;7.47;3.75;;;14.00;99.90;;;;;;4966586;28;20369;-71
2023/04/11 08:02:47;;;;;;;6.35;3.85;;;14.10;99.90;;;;;;4975265;28;20031;-72
2023/04/11 08:05:13;;;;;;;4.22;3.17;;;14.10;99.90;;;;;;4971412;28;20074;-72
2023/04/11 08:07:38;;;;;;;5.75;3.58;;;14.10;99.90;;;;;;4970678;28;20142;-72
2023/04/11 08:10:06;;;;;;;11.48;4.50;;;14.10;99.90;;;;;;4968240;28;20034;-71
2023/04/11 08:12:31;;;;;;;9.40;3.60;;;14.20;99.90;;;;;;4965414;28;20038;-71
2023/04/11 08:14:57;;;;;;;4.03;3.10;;;14.30;99.90;;;;;;4966858;28;20082;-71
2023/04/11 08:17:24;;;;;;;5.40;3.47;;;14.30;99.90;;;;;;4975766;28;20388;-71
2023/04/11 08:19:50;;;;;;;12.45;3.58;;;14.40;99.90;;;;;;4964075;28;20035;-71
2023/04/11 08:22:16;;;;;;;10.13;4.55;;;14.50;99.90;;;;;;4969883;28;20031;-72
2023/04/11 08:24:42;;;;;;;6.80;3.45;;;14.50;99.90;;;;;;4975451;28;20399;-72
2023/04/11 08:27:08;;;;;;;4.75;3.28;;;14.50;99.90;;;;;;4971653;28;20031;-71
2023/04/11 08:29:34;;;;;;;10.90;3.58;;;14.60;99.90;;;;;;4969290;28;20121;-71
2023/04/11 08:31:59;;;;;;;4.57;2.85;;;14.70;99.90;;;;;;4973485;28;20054;-72
2023/04/11 08:34:25;;;;;;;6.53;3.00;;;14.70;99.90;;;;;;4974144;28;20045;-71
2023/04/11 08:36:50;;;;;;;3.92;2.83;;;14.70;99.90;;;;;;4971273;28;20090;-71
2023/04/11 08:39:16;;;;;;;8.93;3.15;;;14.80;99.90;;;;;;4972884;28;20023;-72
2023/04/11 08:41:42;;;;;;;6.45;3.22;;;15.00;99.90;;;;;;4970858;28;20030;-71
2023/04/11 08:44:11;;;;;;;8.85;3.17;;;15.10;99.90;;;;;;4971785;28;20168;-71
2023/04/11 08:46:41;;;;;;;6.72;3.08;;;15.30;99.90;;;;;;4968005;28;20400;-72
2023/04/11 08:49:07;;;;;;;7.57;3.55;;;15.30;99.90;;;;;;4970916;28;20031;-72
2023/04/11 08:51:32;;;;;;;9.60;3.13;;;15.50;99.90;;;;;;4969737;28;20019;-71
2023/04/11 08:54:04;;;;;;;5.32;2.92;;;15.70;99.90;;;;;;4971897;28;20399;-71
2023/04/11 08:56:30;;;;;;;5.80;3.47;;;15.90;99.90;;;;;;4969405;28;20064;-71
2023/04/11 08:58:56;;;;;;;4.75;2.95;;;16.00;99.90;;;;;;4970222;28;20022;-71
2023/04/11 09:01:32;;;;;;;5.97;2.83;;;16.00;99.90;;;;;;4970131;28;20097;-71
2023/04/11 09:04:00;;;;;;;5.75;2.95;;;16.10;99.90;;;;;;4969563;28;20051;-71
2023/04/11 09:06:29;;;;;;;4.75;2.70;;;16.20;99.90;;;;;;4973986;28;20015;-71
2023/04/11 09:08:57;;;;;;;7.85;2.72;;;16.40;99.90;;;;;;4972750;28;20097;-70
2023/04/11 09:11:24;;;;;;;4.97;2.50;;;16.50;99.90;;;;;;4970026;28;20023;-71
2023/04/11 09:14:08;;;;;;;8.70;2.90;;;16.50;99.90;;;;;;4972209;28;20497;-71
2023/04/11 09:16:34;;;;;;;4.85;2.47;;;16.50;99.90;;;;;;4968611;28;20439;-71
2023/04/11 09:19:00;;;;;;;5.55;2.58;;;16.60;99.90;;;;;;4967510;28;20031;-71
2023/04/11 09:21:28;;;;;;;5.63;2.60;;;16.50;99.90;;;;;;4961548;28;20393;-72
2023/04/11 09:24:12;;;;;;;4.55;2.67;;;16.60;99.90;;;;;;4971237;28;20038;-71
2023/04/11 09:26:37;;;;;;;9.00;2.75;;;16.70;99.90;;;;;;4965041;28;20103;-71
2023/04/11 09:29:03;;;;;;;8.75;2.70;;;16.50;99.90;;;;;;4959320;28;20062;-72
2023/04/11 09:31:42;;;;;;;6.75;2.65;;;16.70;99.90;;;;;;4969468;28;20030;-71
2023/04/11 09:34:10;;;;;;;3.35;2.45;;;16.70;99.90;;;;;;4971059;28;20023;-71
2023/04/11 09:36:36;;;;;;;5.13;2.63;;;16.60;99.90;;;;;;4967181;28;20083;-72
2023/04/11 09:39:18;;;;;;;5.70;2.60;;;16.70;99.90;;;;;;4967687;28;20834;-71
2023/04/11 09:41:43;;;;;;;8.68;2.53;;;16.80;99.90;;;;;;4967275;28;20034;-71
2023/04/11 09:44:09;;;;;;;6.32;2.65;;;16.90;99.90;;;;;;4968951;28;20472;-72
2023/04/11 09:46:36;;;;;;;9.70;2.60;;;16.90;99.90;;;;;;4973375;28;20031;-71
2023/04/11 09:49:02;;;;;;;5.40;2.80;;;16.80;99.90;;;;;;4965185;28;20027;-71
2023/04/11 09:51:28;;;;;;;5.85;2.33;;;16.70;99.90;;;;;;4972856;28;20384;-71
2023/04/11 09:53:54;;;;;;;2.88;2.00;;;16.70;99.90;;;;;;4973051;28;20026;-71
2023/04/11 09:56:20;;;;;;;4.57;2.25;;;16.80;99.90;;;;;;4967193;28;20038;-71
2023/04/11 09:58:47;;;;;;;8.45;2.63;;;16.90;99.90;;;;;;4971677;28;20085;-71
2023/04/11 10:01:14;;;;;;;7.78;3.15;;;17.10;99.90;;;;;;4966099;28;20027;-71
2023/04/11 10:03:40;;;;;;;10.02;2.53;;;17.20;99.90;;;;;;4967539;28;20027;-72
2023/04/11 10:06:08;;;;;;;7.07;2.75;;;17.50;99.90;;;;;;4966172;28;20034;-72
2023/04/11 10:08:35;;;;;;;8.88;3.25;;;17.60;99.90;;;;;;4973528;28;20033;-72
2023/04/11 10:11:03;;;;;;;11.23;2.85;;;17.70;99.90;;;;;;4967652;28;20141;-72
2023/04/11 10:13:46;;;;;;;5.88;2.97;;;17.90;99.90;;;;;;4972122;28;20030;-72
2023/04/11 10:16:20;;;;;;;6.18;2.47;;;17.80;99.90;;;;;;4969081;28;20107;-71
2023/04/11 10:18:54;;;;;;;6.32;2.78;;;17.70;99.90;;;;;;4968073;28;20027;-72
2023/04/11 10:21:29;;;;;;;7.47;2.20;;;17.60;99.90;;;;;;4967659;28;20051;-73
2023/04/11 10:24:13;;;;;;;8.27;2.30;;;17.70;99.90;;;;;;4970545;28;20396;-71
2023/04/11 10:26:48;;;;;;;8.15;2.80;;;17.60;99.90;;;;;;4966184;28;20472;-71
2023/04/11 10:29:29;;;;;;;7.10;2.85;;;17.50;99.90;;;;;;4958791;28;20067;-71
2023/04/11 10:32:17;;;;;;;11.15;3.03;;;17.40;99.90;;;;;;4969334;28;20023;-71
2023/04/11 10:35:15;;;;;;;12.65;3.13;;;17.60;99.90;;;;;;4970723;28;20502;-71
2023/04/11 10:37:40;;;;;;;4.78;2.72;;;18.10;99.90;;;;;;4964748;28;20069;-71
2023/04/11 10:40:10;;;;;;;10.23;2.90;;;18.20;99.90;;;;;;4963631;28;20026;-71
2023/04/11 10:42:39;;;;;;;7.68;2.85;;;18.20;99.90;;;;;;4972930;28;20050;-71
2023/04/11 10:45:26;;;;;;;5.75;2.72;;;18.10;99.90;;;;;;4971132;28;20039;-71
2023/04/11 10:47:55;;;;;;;6.30;2.65;;;18.20;99.90;;;;;;4969609;28;20380;-70
2023/04/11 10:50:24;;;;;;;10.40;2.72;;;17.90;99.90;;;;;;4960410;28;20047;-71
2023/04/11 10:52:49;;;;;;;8.00;2.83;;;17.80;99.90;;;;;;4974894;28;20435;-71
2023/04/11 10:55:16;;;;;;;4.93;2.38;;;17.80;99.90;;;;;;4968477;28;20027;-71
2023/04/11 10:58:07;;;;;;;9.38;3.03;;;17.60;99.90;;;;;;4972324;28;20098;-71
2023/04/11 11:00:51;;;;;;;7.03;2.70;;;17.80;99.90;;;;;;4968104;28;20483;-71
2023/04/11 11:03:17;;;;;;;8.98;2.50;;;18.10;99.90;;;;;;4968695;28;20030;-69
2023/04/11 11:05:43;;;;;;;6.13;2.17;;;18.50;99.90;;;;;;4969473;28;20162;-70
2023/04/11 11:08:09;;;;;;;5.70;2.50;;;18.60;99.90;;;;;;4971265;28;20027;-70
2023/04/11 11:10:39;;;;;;;4.70;1.83;;;18.70;99.90;;;;;;4965717;28;20031;-69
2023/04/11 11:13:04;;;;;;;6.65;2.78;;;18.60;99.90;;;;;;4971684;28;20082;-70
2023/04/11 11:15:38;;;;;;;10.68;2.53;;;18.70;99.90;;;;;;4974650;28;20023;-70
2023/04/11 11:18:07;;;;;;;7.97;2.63;;;18.50;99.90;;;;;;4969161;28;20034;-70
2023/04/11 11:20:34;;;;;;;5.35;2.10;;;18.40;99.90;;;;;;4966867;28;20043;-70
2023/04/11 11:23:02;;;;;;;8.25;2.65;;;18.30;99.90;;;;;;4963108;28;20470;-69
2023/04/11 11:25:28;;;;;;;7.03;2.80;;;18.20;99.90;;;;;;4965912;28;20015;-70
2023/04/11 11:28:02;;;;;;;6.10;2.00;;;18.30;99.90;;;;;;4968971;28;20030;-70
2023/04/11 11:30:28;;;;;;;5.15;2.50;;;18.60;99.90;;;;;;4970027;28;20377;-69
2023/04/11 11:32:55;;;;;;;5.63;2.20;;;18.70;99.90;;;;;;4970332;28;20027;-70
2023/04/11 11:35:22;;;;;;;11.18;2.13;;;18.70;99.90;;;;;;4967283;28;20035;-70
2023/04/11 11:37:51;;;;;;;7.50;2.30;;;18.60;99.90;;;;;;4972405;28;20130;-70
2023/04/11 11:40:20;;;;;;;8.50;2.40;;;18.60;99.90;;;;;;4967457;28;20023;-70
2023/04/11 11:42:50;;;;;;;4.30;2.20;;;18.80;99.90;;;;;;4962009;28;20022;-70
2023/04/11 11:45:17;;;;;;;6.53;2.22;;;19.00;99.90;;;;;;4963126;28;20018;-70
2023/04/11 11:47:44;;;;;;;7.75;2.28;;;19.10;99.90;;;;;;4966875;28;20033;-69
2023/04/11 11:50:11;;;;;;;7.78;2.40;;;19.30;99.90;;;;;;4969894;28;20039;-70
2023/04/11 11:52:42;;;;;;;5.15;2.63;;;19.20;99.90;;;;;;4971664;28;20507;-70
2023/04/11 11:55:31;;;;;;;7.50;2.45;;;19.10;99.90;;;;;;4968654;28;20479;-70
2023/04/11 11:58:01;;;;;;;6.57;2.67;;;19.20;99.90;;;;;;4966057;28;20031;-70
2023/04/11 12:00:29;;;;;;;10.57;2.67;;;19.10;99.90;;;;;;4969729;28;20098;-70
2023/04/11 12:02:56;;;;;;;7.65;2.47;;;19.10;99.90;;;;;;4971901;28;20386;-70
2023/04/11 12:05:23;;;;;;;4.60;1.92;;;19.10;99.90;;;;;;4973026;28;20063;-70
2023/04/11 12:07:53;;;;;;;9.27;2.38;;;18.90;99.90;;;;;;4972168;28;20026;-70
2023/04/11 12:10:19;;;;;;;8.52;2.13;;;18.90;99.90;;;;;;4976923;28;20553;-69
2023/04/11 12:12:48;;;;;;;4.88;1.65;;;19.20;99.90;;;;;;4972457;28;20062;-70
2023/04/11 12:15:22;;;;;;;4.60;2.10;;;19.50;99.90;;;;;;4974680;28;20033;-70
2023/04/11 12:17:51;;;;;;;4.63;1.60;;;19.50;99.90;;;;;;4966314;28;20037;-70
2023/04/11 12:20:26;;;;;;;8.60;1.85;;;19.60;99.90;;;;;;4966381;28;20058;-70
2023/04/11 12:22:52;;;;;;;6.15;2.00;;;19.40;99.90;;;;;;4969624;28;20019;-70
2023/04/11 12:25:18;;;;;;;7.57;1.90;;;19.30;99.90;;;;;;4970061;28;20133;-70
2023/04/11 12:27:45;;;;;;;2.65;1.38;;;19.20;99.90;;;;;;4966159;28;20507;-70
2023/04/11 12:30:15;;;;;;;12.07;2.25;;;19.70;99.90;;;;;;4972397;28;20058;-70
2023/04/11 12:32:41;;;;;;;5.65;1.88;;;20.10;99.90;;;;;;4968703;28;20381;-70
2023/04/11 12:35:07;;;;;;;4.65;1.83;;;20.20;99.90;;;;;;4971821;28;20051;-71
2023/04/11 12:37:33;;;;;;;5.78;2.13;;;20.00;99.90;;;;;;4972176;28;20030;-71
2023/04/11 12:40:00;;;;;;;6.60;1.60;;;19.60;99.60;;;;;;4966010;28;20034;-71
2023/04/11 12:42:25;;;;;;;10.00;2.38;;;19.40;99.90;;;;;;4966243;28;20411;-71
2023/04/11 12:44:51;;;;;;;8.10;2.17;;;19.30;99.90;;;;;;4977165;28;20023;-70
2023/04/11 12:47:17;;;;;;;4.50;1.90;;;19.20;99.90;;;;;;4968470;28;20375;-70